Terminal Aerodrome Forecast
Issued by NWS

Home | Current Version | Previous Version | Text Only | Print | Product List | Glossary On
Versions: 1 2 3 4 5 6 7 8 9 10 11 12 13 14 15 16 17 18 19 20
000
FTUS42 KILM 041726
TAFCRE
TAF
KCRE 041726Z 0418/0518 21011KT P6SM VCSH SCT050
     FM050000 23007KT P6SM SCT070
      TEMPO 0505/0509 3SM BR
     FM051200 28008KT P6SM SCT060=

USA.gov is the U.S. government's official web portal to all federal, state and local government web resources and services.